sensor_id;sensor_type;location;lat;lon;timestamp;P1;durP1;ratioP1;P2;durP2;ratioP2
39050;SDS011;24805;55.852;37.644;2023-02-02T00:04:27;26.27;;;15.10;;
39050;SDS011;24805;55.852;37.644;2023-02-02T00:09:34;26.13;;;14.15;;
39050;SDS011;24805;55.852;37.644;2023-02-02T00:14:36;27.42;;;14.82;;
39050;SDS011;24805;55.852;37.644;2023-02-02T00:19:38;26.73;;;14.63;;
39050;SDS011;24805;55.852;37.644;2023-02-02T00:24:40;23.02;;;12.27;;
39050;SDS011;24805;55.852;37.644;2023-02-02T00:29:42;25.35;;;13.60;;
39050;SDS011;24805;55.852;37.644;2023-02-02T00:34:45;24.88;;;12.88;;
39050;SDS011;24805;55.852;37.644;2023-02-02T00:39:47;22.35;;;12.88;;
39050;SDS011;24805;55.852;37.644;2023-02-02T00:44:49;21.05;;;11.68;;
39050;SDS011;24805;55.852;37.644;2023-02-02T00:50:10;21.33;;;12.70;;
39050;SDS011;24805;55.852;37.644;2023-02-02T00:55:14;21.30;;;11.63;;
39050;SDS011;24805;55.852;37.644;2023-02-02T01:00:19;23.33;;;12.40;;
39050;SDS011;24805;55.852;37.644;2023-02-02T01:05:24;20.20;;;11.43;;
39050;SDS011;24805;55.852;37.644;2023-02-02T01:10:26;15.65;;;9.10;;
39050;SDS011;24805;55.852;37.644;2023-02-02T01:15:29;22.55;;;11.32;;
39050;SDS011;24805;55.852;37.644;2023-02-02T01:20:31;22.20;;;11.30;;
39050;SDS011;24805;55.852;37.644;2023-02-02T01:25:33;23.52;;;11.68;;
39050;SDS011;24805;55.852;37.644;2023-02-02T01:30:39;20.67;;;10.75;;
39050;SDS011;24805;55.852;37.644;2023-02-02T01:35:45;19.13;;;10.60;;
39050;SDS011;24805;55.852;37.644;2023-02-02T01:40:54;19.23;;;9.90;;
39050;SDS011;24805;55.852;37.644;2023-02-02T01:45:57;19.42;;;10.50;;
39050;SDS011;24805;55.852;37.644;2023-02-02T01:51:02;16.15;;;9.57;;
39050;SDS011;24805;55.852;37.644;2023-02-02T01:56:08;17.05;;;9.02;;
39050;SDS011;24805;55.852;37.644;2023-02-02T02:01:13;15.35;;;9.05;;
39050;SDS011;24805;55.852;37.644;2023-02-02T02:06:16;17.15;;;9.05;;
39050;SDS011;24805;55.852;37.644;2023-02-02T02:11:20;19.40;;;10.48;;
39050;SDS011;24805;55.852;37.644;2023-02-02T02:38:03;19.58;;;9.85;;
39050;SDS011;24805;55.852;37.644;2023-02-02T02:43:20;22.02;;;11.30;;
39050;SDS011;24805;55.852;37.644;2023-02-02T02:48:28;18.45;;;9.52;;
39050;SDS011;24805;55.852;37.644;2023-02-02T02:53:31;18.17;;;9.25;;
39050;SDS011;24805;55.852;37.644;2023-02-02T03:09:09;21.58;;;10.27;;
39050;SDS011;24805;55.852;37.644;2023-02-02T03:14:20;20.95;;;9.82;;
39050;SDS011;24805;55.852;37.644;2023-02-02T03:19:22;13.98;;;7.07;;
39050;SDS011;24805;55.852;37.644;2023-02-02T03:24:24;18.77;;;10.30;;
39050;SDS011;24805;55.852;37.644;2023-02-02T03:29:26;17.67;;;9.02;;
39050;SDS011;24805;55.852;37.644;2023-02-02T03:34:29;17.83;;;9.52;;
39050;SDS011;24805;55.852;37.644;2023-02-02T03:39:31;18.25;;;9.68;;
39050;SDS011;24805;55.852;37.644;2023-02-02T03:44:33;18.65;;;9.32;;
39050;SDS011;24805;55.852;37.644;2023-02-02T03:49:35;15.45;;;7.90;;
39050;SDS011;24805;55.852;37.644;2023-02-02T03:54:37;18.52;;;10.02;;
39050;SDS011;24805;55.852;37.644;2023-02-02T03:59:39;17.08;;;8.90;;
39050;SDS011;24805;55.852;37.644;2023-02-02T04:04:41;17.58;;;9.90;;
39050;SDS011;24805;55.852;37.644;2023-02-02T04:09:43;19.75;;;9.93;;
39050;SDS011;24805;55.852;37.644;2023-02-02T04:14:45;20.30;;;10.00;;
39050;SDS011;24805;55.852;37.644;2023-02-02T04:19:47;16.00;;;7.72;;
39050;SDS011;24805;55.852;37.644;2023-02-02T04:24:49;22.75;;;11.05;;
39050;SDS011;24805;55.852;37.644;2023-02-02T04:29:51;20.98;;;11.32;;
39050;SDS011;24805;55.852;37.644;2023-02-02T04:34:53;25.30;;;12.68;;
39050;SDS011;24805;55.852;37.644;2023-02-02T04:39:55;24.70;;;14.05;;
39050;SDS011;24805;55.852;37.644;2023-02-02T04:44:57;23.98;;;11.70;;
39050;SDS011;24805;55.852;37.644;2023-02-02T04:49:59;29.88;;;14.50;;
39050;SDS011;24805;55.852;37.644;2023-02-02T04:55:02;28.95;;;13.52;;
39050;SDS011;24805;55.852;37.644;2023-02-02T05:00:04;28.02;;;13.27;;
39050;SDS011;24805;55.852;37.644;2023-02-02T05:05:08;24.73;;;11.63;;
39050;SDS011;24805;55.852;37.644;2023-02-02T05:10:12;29.35;;;13.90;;
39050;SDS011;24805;55.852;37.644;2023-02-02T05:15:14;24.02;;;12.48;;
39050;SDS011;24805;55.852;37.644;2023-02-02T05:20:17;23.90;;;12.82;;
39050;SDS011;24805;55.852;37.644;2023-02-02T05:25:20;28.15;;;13.50;;
39050;SDS011;24805;55.852;37.644;2023-02-02T05:30:22;27.73;;;13.18;;
39050;SDS011;24805;55.852;37.644;2023-02-02T05:35:24;22.95;;;8.90;;
39050;SDS011;24805;55.852;37.644;2023-02-02T05:40:26;33.53;;;15.45;;
39050;SDS011;24805;55.852;37.644;2023-02-02T05:45:29;25.80;;;13.07;;
39050;SDS011;24805;55.852;37.644;2023-02-02T05:50:31;31.65;;;15.60;;
39050;SDS011;24805;55.852;37.644;2023-02-02T05:55:37;27.98;;;14.88;;
39050;SDS011;24805;55.852;37.644;2023-02-02T06:00:39;28.92;;;15.52;;
39050;SDS011;24805;55.852;37.644;2023-02-02T06:05:41;27.65;;;14.20;;
39050;SDS011;24805;55.852;37.644;2023-02-02T06:10:43;29.15;;;14.80;;
39050;SDS011;24805;55.852;37.644;2023-02-02T06:15:46;26.60;;;14.38;;
39050;SDS011;24805;55.852;37.644;2023-02-02T06:20:48;26.52;;;13.95;;
39050;SDS011;24805;55.852;37.644;2023-02-02T06:25:56;25.08;;;13.55;;
39050;SDS011;24805;55.852;37.644;2023-02-02T06:31:05;27.60;;;13.98;;
39050;SDS011;24805;55.852;37.644;2023-02-02T06:36:08;22.35;;;11.60;;
39050;SDS011;24805;55.852;37.644;2023-02-02T06:41:10;29.73;;;14.13;;
39050;SDS011;24805;55.852;37.644;2023-02-02T06:46:12;24.63;;;12.85;;
39050;SDS011;24805;55.852;37.644;2023-02-02T06:51:15;29.45;;;15.27;;
39050;SDS011;24805;55.852;37.644;2023-02-02T06:56:17;26.20;;;14.25;;
39050;SDS011;24805;55.852;37.644;2023-02-02T07:01:19;26.95;;;13.75;;
39050;SDS011;24805;55.852;37.644;2023-02-02T07:06:23;27.85;;;15.90;;
39050;SDS011;24805;55.852;37.644;2023-02-02T07:11:27;27.55;;;14.75;;
39050;SDS011;24805;55.852;37.644;2023-02-02T07:16:29;26.88;;;14.07;;
39050;SDS011;24805;55.852;37.644;2023-02-02T07:21:32;29.40;;;15.40;;
39050;SDS011;24805;55.852;37.644;2023-02-02T07:26:38;25.83;;;14.20;;
39050;SDS011;24805;55.852;37.644;2023-02-02T07:31:40;28.83;;;14.02;;
39050;SDS011;24805;55.852;37.644;2023-02-02T07:36:42;28.58;;;15.07;;
39050;SDS011;24805;55.852;37.644;2023-02-02T07:41:44;26.17;;;14.77;;
39050;SDS011;24805;55.852;37.644;2023-02-02T07:46:57;23.75;;;13.18;;
39050;SDS011;24805;55.852;37.644;2023-02-02T07:51:59;23.25;;;12.65;;
39050;SDS011;24805;55.852;37.644;2023-02-02T07:57:01;27.33;;;13.98;;
39050;SDS011;24805;55.852;37.644;2023-02-02T08:02:03;26.88;;;14.00;;
39050;SDS011;24805;55.852;37.644;2023-02-02T08:07:05;23.73;;;13.40;;
39050;SDS011;24805;55.852;37.644;2023-02-02T08:12:07;28.10;;;13.90;;
39050;SDS011;24805;55.852;37.644;2023-02-02T08:17:09;23.25;;;12.88;;
39050;SDS011;24805;55.852;37.644;2023-02-02T08:22:12;23.70;;;13.30;;
39050;SDS011;24805;55.852;37.644;2023-02-02T08:27:14;22.95;;;12.82;;
39050;SDS011;24805;55.852;37.644;2023-02-02T08:32:17;23.92;;;13.38;;
39050;SDS011;24805;55.852;37.644;2023-02-02T08:37:19;18.95;;;10.40;;
39050;SDS011;24805;55.852;37.644;2023-02-02T08:42:21;26.63;;;14.57;;
39050;SDS011;24805;55.852;37.644;2023-02-02T08:47:23;28.80;;;14.20;;
39050;SDS011;24805;55.852;37.644;2023-02-02T08:52:25;23.35;;;13.25;;
39050;SDS011;24805;55.852;37.644;2023-02-02T08:57:27;25.08;;;14.15;;
39050;SDS011;24805;55.852;37.644;2023-02-02T09:02:31;24.17;;;13.50;;
39050;SDS011;24805;55.852;37.644;2023-02-02T09:07:33;27.27;;;14.38;;
39050;SDS011;24805;55.852;37.644;2023-02-02T09:12:35;23.13;;;11.30;;
39050;SDS011;24805;55.852;37.644;2023-02-02T09:17:37;22.73;;;13.40;;
39050;SDS011;24805;55.852;37.644;2023-02-02T09:22:40;21.52;;;11.23;;
39050;SDS011;24805;55.852;37.644;2023-02-02T09:27:42;24.90;;;13.88;;
39050;SDS011;24805;55.852;37.644;2023-02-02T09:32:47;27.10;;;13.98;;
39050;SDS011;24805;55.852;37.644;2023-02-02T09:37:50;25.55;;;12.40;;
39050;SDS011;24805;55.852;37.644;2023-02-02T09:42:54;24.33;;;14.90;;
39050;SDS011;24805;55.852;37.644;2023-02-02T09:58:54;23.15;;;13.38;;
39050;SDS011;24805;55.852;37.644;2023-02-02T10:19:51;21.45;;;10.50;;
39050;SDS011;24805;55.852;37.644;2023-02-02T10:24:57;25.02;;;13.60;;
39050;SDS011;24805;55.852;37.644;2023-02-02T10:30:00;25.55;;;13.80;;
39050;SDS011;24805;55.852;37.644;2023-02-02T10:40:57;24.33;;;13.48;;
39050;SDS011;24805;55.852;37.644;2023-02-02T10:46:08;21.63;;;11.57;;
39050;SDS011;24805;55.852;37.644;2023-02-02T10:51:23;17.90;;;10.98;;
39050;SDS011;24805;55.852;37.644;2023-02-02T11:01:35;21.85;;;12.45;;
39050;SDS011;24805;55.852;37.644;2023-02-02T11:06:40;27.05;;;14.65;;
39050;SDS011;24805;55.852;37.644;2023-02-02T11:12:04;26.63;;;14.40;;
39050;SDS011;24805;55.852;37.644;2023-02-02T11:17:10;26.60;;;15.00;;
39050;SDS011;24805;55.852;37.644;2023-02-02T11:22:23;23.55;;;14.07;;
39050;SDS011;24805;55.852;37.644;2023-02-02T11:27:38;22.30;;;13.40;;
39050;SDS011;24805;55.852;37.644;2023-02-02T11:32:42;19.85;;;12.07;;
39050;SDS011;24805;55.852;37.644;2023-02-02T11:43:13;24.60;;;14.57;;
39050;SDS011;24805;55.852;37.644;2023-02-02T11:48:20;22.95;;;13.30;;
39050;SDS011;24805;55.852;37.644;2023-02-02T11:53:31;21.52;;;12.80;;
39050;SDS011;24805;55.852;37.644;2023-02-02T11:58:46;23.33;;;14.07;;
39050;SDS011;24805;55.852;37.644;2023-02-02T12:03:51;24.40;;;12.55;;
39050;SDS011;24805;55.852;37.644;2023-02-02T12:08:56;27.88;;;14.25;;
39050;SDS011;24805;55.852;37.644;2023-02-02T12:14:04;23.63;;;13.50;;
39050;SDS011;24805;55.852;37.644;2023-02-02T12:25:11;25.55;;;13.43;;
39050;SDS011;24805;55.852;37.644;2023-02-02T12:52:19;24.05;;;12.25;;
39050;SDS011;24805;55.852;37.644;2023-02-02T13:19:11;26.60;;;15.05;;
39050;SDS011;24805;55.852;37.644;2023-02-02T13:24:23;24.90;;;12.68;;
39050;SDS011;24805;55.852;37.644;2023-02-02T13:35:32;27.77;;;14.35;;
39050;SDS011;24805;55.852;37.644;2023-02-02T13:50:37;25.58;;;13.40;;
39050;SDS011;24805;55.852;37.644;2023-02-02T14:01:11;24.00;;;14.00;;
39050;SDS011;24805;55.852;37.644;2023-02-02T14:06:19;25.90;;;12.50;;
39050;SDS011;24805;55.852;37.644;2023-02-02T14:11:36;24.48;;;11.38;;
39050;SDS011;24805;55.852;37.644;2023-02-02T14:16:44;32.35;;;15.50;;
39050;SDS011;24805;55.852;37.644;2023-02-02T14:21:57;29.98;;;15.80;;
39050;SDS011;24805;55.852;37.644;2023-02-02T14:37:33;29.20;;;15.75;;
39050;SDS011;24805;55.852;37.644;2023-02-02T14:48:42;30.95;;;15.15;;
39050;SDS011;24805;55.852;37.644;2023-02-02T14:59:14;30.57;;;16.30;;
39050;SDS011;24805;55.852;37.644;2023-02-02T15:19:34;35.92;;;16.42;;
39050;SDS011;24805;55.852;37.644;2023-02-02T15:24:42;33.05;;;16.52;;
39050;SDS011;24805;55.852;37.644;2023-02-02T15:29:48;32.72;;;17.80;;
39050;SDS011;24805;55.852;37.644;2023-02-02T15:35:00;25.73;;;12.02;;
39050;SDS011;24805;55.852;37.644;2023-02-02T15:40:12;32.05;;;17.08;;
39050;SDS011;24805;55.852;37.644;2023-02-02T15:45:59;34.33;;;18.00;;
39050;SDS011;24805;55.852;37.644;2023-02-02T15:50:51;35.72;;;17.52;;
39050;SDS011;24805;55.852;37.644;2023-02-02T15:55:57;31.27;;;16.67;;
39050;SDS011;24805;55.852;37.644;2023-02-02T16:01:00;34.63;;;17.60;;
39050;SDS011;24805;55.852;37.644;2023-02-02T16:06:07;29.90;;;15.57;;
39050;SDS011;24805;55.852;37.644;2023-02-02T16:11:13;22.73;;;11.70;;
39050;SDS011;24805;55.852;37.644;2023-02-02T16:16:25;33.65;;;17.95;;
39050;SDS011;24805;55.852;37.644;2023-02-02T16:21:29;36.95;;;18.50;;
39050;SDS011;24805;55.852;37.644;2023-02-02T16:26:33;33.42;;;17.98;;
39050;SDS011;24805;55.852;37.644;2023-02-02T16:31:36;31.98;;;16.08;;
39050;SDS011;24805;55.852;37.644;2023-02-02T16:36:38;33.03;;;17.00;;
39050;SDS011;24805;55.852;37.644;2023-02-02T16:41:40;30.50;;;15.48;;
39050;SDS011;24805;55.852;37.644;2023-02-02T16:46:44;30.58;;;17.85;;
39050;SDS011;24805;55.852;37.644;2023-02-02T16:52:09;32.78;;;17.42;;
39050;SDS011;24805;55.852;37.644;2023-02-02T16:57:16;32.35;;;16.35;;
39050;SDS011;24805;55.852;37.644;2023-02-02T17:02:32;33.50;;;18.25;;
39050;SDS011;24805;55.852;37.644;2023-02-02T17:07:47;32.80;;;16.40;;
39050;SDS011;24805;55.852;37.644;2023-02-02T17:12:59;32.22;;;16.27;;
39050;SDS011;24805;55.852;37.644;2023-02-02T17:18:03;24.63;;;12.98;;
39050;SDS011;24805;55.852;37.644;2023-02-02T17:23:05;33.50;;;18.70;;
39050;SDS011;24805;55.852;37.644;2023-02-02T17:28:14;30.98;;;17.23;;
39050;SDS011;24805;55.852;37.644;2023-02-02T17:33:19;34.53;;;18.33;;
39050;SDS011;24805;55.852;37.644;2023-02-02T17:38:22;32.92;;;17.90;;
39050;SDS011;24805;55.852;37.644;2023-02-02T17:43:25;35.47;;;18.75;;
39050;SDS011;24805;55.852;37.644;2023-02-02T17:48:28;37.03;;;18.98;;
39050;SDS011;24805;55.852;37.644;2023-02-02T17:53:30;28.83;;;16.45;;
39050;SDS011;24805;55.852;37.644;2023-02-02T17:58:34;35.60;;;19.40;;
39050;SDS011;24805;55.852;37.644;2023-02-02T18:03:36;35.80;;;18.95;;
39050;SDS011;24805;55.852;37.644;2023-02-02T18:08:40;35.90;;;18.08;;
39050;SDS011;24805;55.852;37.644;2023-02-02T18:13:42;33.78;;;17.17;;
39050;SDS011;24805;55.852;37.644;2023-02-02T18:18:44;33.55;;;17.42;;
39050;SDS011;24805;55.852;37.644;2023-02-02T18:23:47;32.95;;;16.60;;
39050;SDS011;24805;55.852;37.644;2023-02-02T18:28:49;35.45;;;19.30;;
39050;SDS011;24805;55.852;37.644;2023-02-02T18:33:52;29.00;;;14.02;;
39050;SDS011;24805;55.852;37.644;2023-02-02T18:38:55;34.60;;;18.15;;
39050;SDS011;24805;55.852;37.644;2023-02-02T18:43:58;34.10;;;18.02;;
39050;SDS011;24805;55.852;37.644;2023-02-02T18:49:00;37.10;;;19.40;;
39050;SDS011;24805;55.852;37.644;2023-02-02T18:54:02;38.05;;;18.70;;
39050;SDS011;24805;55.852;37.644;2023-02-02T18:59:04;37.70;;;19.80;;
39050;SDS011;24805;55.852;37.644;2023-02-02T19:04:07;36.55;;;19.33;;
39050;SDS011;24805;55.852;37.644;2023-02-02T19:09:10;35.95;;;19.50;;
39050;SDS011;24805;55.852;37.644;2023-02-02T19:14:18;32.78;;;16.63;;
39050;SDS011;24805;55.852;37.644;2023-02-02T19:19:26;30.00;;;15.55;;
39050;SDS011;24805;55.852;37.644;2023-02-02T19:24:36;41.95;;;21.42;;
39050;SDS011;24805;55.852;37.644;2023-02-02T19:29:39;34.83;;;18.13;;
39050;SDS011;24805;55.852;37.644;2023-02-02T19:34:41;35.80;;;18.00;;
39050;SDS011;24805;55.852;37.644;2023-02-02T19:39:43;35.22;;;18.20;;
39050;SDS011;24805;55.852;37.644;2023-02-02T19:44:47;35.78;;;19.65;;
39050;SDS011;24805;55.852;37.644;2023-02-02T19:50:16;37.97;;;20.35;;
39050;SDS011;24805;55.852;37.644;2023-02-02T19:55:25;37.88;;;18.67;;
39050;SDS011;24805;55.852;37.644;2023-02-02T20:00:29;39.53;;;20.58;;
39050;SDS011;24805;55.852;37.644;2023-02-02T20:05:38;37.15;;;18.27;;
39050;SDS011;24805;55.852;37.644;2023-02-02T20:10:42;33.80;;;17.13;;
39050;SDS011;24805;55.852;37.644;2023-02-02T20:15:45;35.13;;;17.02;;
39050;SDS011;24805;55.852;37.644;2023-02-02T20:20:49;32.97;;;15.85;;
39050;SDS011;24805;55.852;37.644;2023-02-02T20:25:56;39.00;;;19.45;;
39050;SDS011;24805;55.852;37.644;2023-02-02T20:31:00;38.55;;;19.65;;
39050;SDS011;24805;55.852;37.644;2023-02-02T20:36:27;30.80;;;15.18;;
39050;SDS011;24805;55.852;37.644;2023-02-02T20:41:37;40.15;;;19.38;;
39050;SDS011;24805;55.852;37.644;2023-02-02T20:46:39;37.00;;;17.88;;
39050;SDS011;24805;55.852;37.644;2023-02-02T20:51:41;37.95;;;18.80;;
39050;SDS011;24805;55.852;37.644;2023-02-02T20:56:43;33.05;;;16.33;;
39050;SDS011;24805;55.852;37.644;2023-02-02T21:01:45;40.50;;;20.35;;
39050;SDS011;24805;55.852;37.644;2023-02-02T21:06:48;32.97;;;17.08;;
39050;SDS011;24805;55.852;37.644;2023-02-02T21:11:50;31.60;;;17.63;;
39050;SDS011;24805;55.852;37.644;2023-02-02T21:16:52;38.22;;;19.17;;
39050;SDS011;24805;55.852;37.644;2023-02-02T21:22:14;32.67;;;16.23;;
39050;SDS011;24805;55.852;37.644;2023-02-02T21:27:16;44.00;;;19.98;;
39050;SDS011;24805;55.852;37.644;2023-02-02T21:32:18;39.55;;;20.33;;
39050;SDS011;24805;55.852;37.644;2023-02-02T21:37:20;35.38;;;18.60;;
39050;SDS011;24805;55.852;37.644;2023-02-02T21:42:23;36.50;;;18.92;;
39050;SDS011;24805;55.852;37.644;2023-02-02T21:47:34;34.33;;;18.63;;
39050;SDS011;24805;55.852;37.644;2023-02-02T21:52:37;37.20;;;17.80;;
39050;SDS011;24805;55.852;37.644;2023-02-02T21:57:39;34.50;;;17.40;;
39050;SDS011;24805;55.852;37.644;2023-02-02T22:02:43;36.28;;;18.92;;
39050;SDS011;24805;55.852;37.644;2023-02-02T22:07:49;36.88;;;19.92;;
39050;SDS011;24805;55.852;37.644;2023-02-02T22:12:53;33.90;;;17.23;;
39050;SDS011;24805;55.852;37.644;2023-02-02T22:17:56;38.08;;;19.48;;
39050;SDS011;24805;55.852;37.644;2023-02-02T22:22:58;37.78;;;19.83;;
39050;SDS011;24805;55.852;37.644;2023-02-02T22:28:48;38.88;;;19.15;;
39050;SDS011;24805;55.852;37.644;2023-02-02T22:33:37;35.80;;;18.65;;
39050;SDS011;24805;55.852;37.644;2023-02-02T22:38:39;40.70;;;20.00;;
39050;SDS011;24805;55.852;37.644;2023-02-02T22:43:41;38.05;;;20.02;;
39050;SDS011;24805;55.852;37.644;2023-02-02T22:48:43;44.47;;;21.23;;
39050;SDS011;24805;55.852;37.644;2023-02-02T22:53:45;39.28;;;20.83;;
39050;SDS011;24805;55.852;37.644;2023-02-02T22:58:47;40.70;;;19.98;;
39050;SDS011;24805;55.852;37.644;2023-02-02T23:03:49;35.35;;;18.58;;
39050;SDS011;24805;55.852;37.644;2023-02-02T23:08:51;37.67;;;18.92;;
39050;SDS011;24805;55.852;37.644;2023-02-02T23:13:53;40.28;;;20.63;;
39050;SDS011;24805;55.852;37.644;2023-02-02T23:18:55;36.88;;;20.38;;
39050;SDS011;24805;55.852;37.644;2023-02-02T23:23:57;42.72;;;20.75;;
39050;SDS011;24805;55.852;37.644;2023-02-02T23:28:59;38.13;;;19.95;;
39050;SDS011;24805;55.852;37.644;2023-02-02T23:34:01;37.00;;;19.48;;
39050;SDS011;24805;55.852;37.644;2023-02-02T23:39:03;33.80;;;18.58;;
39050;SDS011;24805;55.852;37.644;2023-02-02T23:44:05;38.75;;;19.35;;
39050;SDS011;24805;55.852;37.644;2023-02-02T23:49:07;38.78;;;19.10;;
39050;SDS011;24805;55.852;37.644;2023-02-02T23:54:10;39.80;;;19.92;;
39050;SDS011;24805;55.852;37.644;2023-02-02T23:59:14;34.90;;;17.33;;
